createdAt,value
2023-04-08T00:03:48.408Z,11.43
2023-04-08T00:08:50.157Z,10.03
2023-04-08T00:13:51.706Z,10.57
2023-04-08T00:18:53.143Z,13.97
2023-04-08T00:23:54.584Z,10.37
2023-04-08T00:28:56.001Z,12.70
2023-04-08T00:33:57.818Z,10.83
2023-04-08T00:38:59.173Z,9.60
2023-04-08T00:44:00.910Z,11.70
2023-04-08T00:49:02.561Z,13.17
2023-04-08T00:54:07.333Z,12.50
2023-04-08T00:59:08.744Z,11.73
2023-04-08T01:04:30.044Z,9.53
2023-04-08T01:09:32.925Z,12.03
2023-04-08T01:14:35.816Z,9.90
2023-04-08T01:19:42.265Z,12.47
2023-04-08T01:24:44.351Z,9.43
2023-04-08T01:29:46.576Z,12.03
2023-04-08T01:34:48.361Z,11.77
2023-04-08T01:39:50.195Z,10.40
2023-04-08T01:44:52.766Z,10.90
2023-04-08T01:49:55.237Z,11.60
2023-04-08T01:54:56.695Z,10.30
2023-04-08T02:00:00.678Z,14.33
2023-04-08T02:05:02.218Z,11.32
2023-04-08T02:10:04.139Z,10.57
2023-04-08T02:15:05.857Z,12.80
2023-04-08T02:20:08.586Z,12.67
2023-04-08T02:25:15.641Z,12.38
2023-04-08T02:30:17.528Z,20.93
2023-04-08T02:35:19.978Z,15.27
2023-04-08T02:40:28.618Z,12.87
2023-04-08T02:45:31.646Z,14.27
2023-04-08T02:50:33.098Z,13.33
2023-04-08T02:55:34.575Z,15.90
2023-04-08T03:00:37.198Z,15.20
2023-04-08T03:05:38.622Z,14.13
2023-04-08T03:10:40.052Z,15.63
2023-04-08T03:15:41.494Z,15.53
2023-04-08T03:20:42.830Z,14.57
2023-04-08T03:25:44.315Z,14.13
2023-04-08T03:30:45.799Z,12.53
2023-04-08T03:35:47.214Z,16.03
2023-04-08T03:40:48.630Z,15.03
2023-04-08T03:45:50.131Z,14.90
2023-04-08T03:50:51.603Z,16.77
2023-04-08T03:55:53.021Z,17.50
2023-04-08T04:00:54.436Z,14.67
2023-04-08T04:05:55.908Z,16.87
2023-04-08T04:10:58.602Z,17.10
2023-04-08T04:16:00.235Z,16.13
2023-04-08T04:21:04.977Z,14.30
2023-04-08T04:31:07.756Z,18.47
2023-04-08T04:36:09.171Z,17.93
2023-04-08T04:41:11.041Z,19.80
2023-04-08T04:46:12.509Z,18.27
2023-04-08T04:51:14.286Z,21.63
2023-04-08T04:56:15.760Z,19.83
2023-04-08T05:01:17.156Z,22.73
2023-04-08T05:06:18.614Z,18.27
2023-04-08T05:11:21.708Z,22.87
2023-04-08T05:16:23.195Z,21.13
2023-04-08T05:21:24.767Z,20.17
2023-04-08T05:26:26.402Z,35.60
2023-04-08T05:31:28.100Z,20.80
2023-04-08T05:36:29.532Z,19.83
2023-04-08T05:41:30.977Z,24.40
2023-04-08T05:46:32.424Z,22.63
2023-04-08T05:51:34.234Z,20.37
2023-04-08T05:56:36.107Z,22.57
2023-04-08T06:01:37.957Z,21.90
2023-04-08T06:06:42.448Z,23.60
2023-04-08T06:11:43.827Z,18.25
2023-04-08T06:16:45.606Z,18.77
2023-04-08T06:21:47.400Z,18.30
2023-04-08T06:26:50.143Z,17.73
2023-04-08T06:31:51.630Z,18.10
2023-04-08T06:36:53.079Z,16.57
2023-04-08T06:41:54.717Z,16.20
2023-04-08T06:46:56.112Z,16.30
2023-04-08T06:51:57.532Z,17.30
2023-04-08T06:56:58.977Z,15.40
2023-04-08T07:02:00.602Z,16.77
2023-04-08T07:07:02.092Z,16.20
2023-04-08T07:12:04.424Z,14.53
2023-04-08T07:17:06.166Z,14.83
2023-04-08T07:22:07.636Z,19.80
2023-04-08T07:27:09.339Z,21.47
2023-04-08T07:32:10.802Z,20.43
2023-04-08T07:37:12.304Z,15.37
2023-04-08T07:42:13.682Z,17.77
2023-04-08T07:47:15.098Z,17.37
2023-04-08T07:52:17.797Z,14.60
2023-04-08T07:57:19.179Z,13.77
2023-04-08T08:02:20.825Z,17.30
2023-04-08T08:07:22.385Z,17.00
2023-04-08T08:12:23.852Z,15.77
2023-04-08T08:17:27.760Z,15.53
2023-04-08T08:22:29.628Z,18.58
2023-04-08T08:27:31.345Z,15.23
2023-04-08T08:32:32.778Z,13.03
2023-04-08T08:37:34.216Z,17.20
2023-04-08T08:42:35.878Z,16.33
2023-04-08T08:47:37.342Z,13.43
2023-04-08T08:52:38.794Z,16.13
2023-04-08T08:57:40.221Z,12.07
2023-04-08T09:02:42.275Z,15.93
2023-04-08T09:07:44.659Z,12.03
2023-04-08T09:12:56.254Z,10.68
2023-04-08T09:17:59.002Z,15.63
2023-04-08T09:23:01.700Z,11.85
2023-04-08T09:28:03.603Z,14.27
2023-04-08T09:33:07.371Z,15.18
2023-04-08T09:38:09.036Z,11.48
2023-04-08T09:43:13.514Z,14.95
2023-04-08T09:53:18.814Z,8.50
2023-04-08T09:58:24.499Z,11.35
2023-04-08T10:03:28.809Z,9.20
2023-04-08T10:08:31.523Z,11.65
2023-04-08T10:13:33.539Z,10.23
2023-04-08T10:18:35.022Z,8.55
2023-04-08T10:23:53.807Z,7.88
2023-04-08T10:28:55.296Z,8.77
2023-04-08T10:33:58.020Z,7.13
2023-04-08T10:38:59.415Z,9.18
2023-04-08T10:44:03.396Z,8.77
2023-04-08T10:49:04.821Z,7.85
2023-04-08T10:54:07.520Z,9.35
2023-04-08T10:59:09.042Z,9.00
2023-04-08T11:04:14.793Z,8.93
2023-04-08T11:09:18.983Z,8.80
2023-04-08T11:14:21.960Z,8.85
2023-04-08T11:19:24.549Z,11.60
2023-04-08T11:24:26.006Z,11.48
2023-04-08T11:29:27.986Z,9.23
2023-04-08T11:34:29.354Z,10.95
2023-04-08T11:39:30.890Z,10.45
2023-04-08T11:44:33.093Z,11.55
2023-04-08T11:49:43.784Z,14.57
2023-04-08T11:54:45.253Z,10.25
2023-04-08T11:59:47.067Z,10.48
2023-04-08T12:04:48.454Z,10.43
2023-04-08T12:09:49.920Z,11.50
2023-04-08T12:14:51.402Z,11.57
2023-04-08T12:19:52.759Z,12.07
2023-04-08T12:24:54.201Z,12.82
2023-04-08T12:29:55.728Z,9.57
2023-04-08T12:34:57.196Z,9.32
2023-04-08T12:39:58.947Z,13.77
2023-04-08T12:45:00.757Z,10.48
2023-04-08T12:50:02.149Z,11.35
2023-04-08T12:55:03.779Z,11.00
2023-04-08T13:00:05.880Z,9.68
2023-04-08T13:05:07.371Z,11.38
2023-04-08T13:10:09.085Z,8.73
2023-04-08T13:15:12.007Z,10.93
2023-04-08T13:20:14.619Z,11.43
2023-04-08T13:25:15.999Z,14.38
2023-04-08T13:30:17.509Z,12.25
2023-04-08T13:35:19.463Z,11.70
2023-04-08T13:40:21.286Z,10.40
2023-04-08T13:45:22.726Z,13.23
2023-04-08T13:50:24.153Z,16.35
2023-04-08T13:55:26.171Z,9.13
2023-04-08T14:00:27.944Z,10.27
2023-04-08T14:05:29.318Z,10.85
2023-04-08T14:10:30.729Z,13.65
2023-04-08T14:15:32.481Z,13.07
2023-04-08T14:20:35.496Z,10.20
2023-04-08T14:25:37.025Z,9.02
2023-04-08T14:30:38.492Z,12.15
2023-04-08T14:35:39.998Z,9.98
2023-04-08T14:40:41.560Z,10.88
2023-04-08T14:45:44.925Z,10.18
2023-04-08T14:50:46.377Z,9.87
2023-04-08T14:55:47.811Z,20.13
2023-04-08T15:00:49.197Z,24.02
2023-04-08T15:05:50.731Z,10.95
2023-04-08T15:10:52.197Z,11.95
2023-04-08T15:15:54.042Z,11.00
2023-04-08T15:20:56.548Z,10.65
2023-04-08T15:25:58.060Z,14.57
2023-04-08T15:30:59.543Z,10.75
2023-04-08T15:36:04.049Z,14.63
2023-04-08T15:41:05.698Z,11.70
2023-04-08T15:46:07.334Z,15.18
2023-04-08T15:51:08.948Z,10.77
2023-04-08T15:56:14.612Z,10.90
2023-04-08T16:01:16.928Z,11.50
2023-04-08T16:06:18.330Z,12.45
2023-04-08T16:11:19.995Z,11.38
2023-04-08T16:16:21.438Z,15.60
2023-04-08T16:21:22.906Z,12.25
2023-04-08T16:26:24.425Z,14.02
2023-04-08T16:31:26.013Z,13.45
2023-04-08T16:36:27.459Z,11.85
2023-04-08T16:41:28.828Z,16.83
2023-04-08T16:46:30.217Z,17.13
2023-04-08T16:51:31.639Z,20.60
2023-04-08T16:56:33.018Z,25.38
2023-04-08T17:01:34.446Z,14.90
2023-04-08T17:06:36.143Z,18.27
2023-04-08T17:11:38.018Z,18.58
2023-04-08T17:16:39.520Z,15.00
2023-04-08T17:21:42.061Z,55.17
2023-04-08T17:26:43.629Z,15.07
2023-04-08T17:31:45.239Z,16.42
2023-04-08T17:36:47.018Z,12.65
2023-04-08T17:41:48.464Z,14.32
2023-04-08T17:46:50.170Z,11.27
2023-04-08T17:51:51.618Z,18.08
2023-04-08T17:56:53.102Z,18.25
2023-04-08T18:01:54.628Z,14.55
2023-04-08T18:06:57.110Z,15.07
2023-04-08T18:11:58.596Z,17.13
2023-04-08T18:17:00.047Z,14.82
2023-04-08T18:22:01.741Z,18.52
2023-04-08T18:27:04.850Z,17.08
2023-04-08T18:32:06.614Z,19.90
2023-04-08T18:37:08.118Z,17.80
2023-04-08T18:42:09.725Z,16.40
2023-04-08T18:47:11.598Z,16.05
2023-04-08T18:52:13.796Z,17.58
2023-04-08T18:57:15.199Z,17.70
2023-04-08T19:02:16.735Z,57.80
2023-04-08T19:07:18.162Z,17.90
2023-04-08T19:12:20.642Z,17.65
2023-04-08T19:17:22.079Z,19.00
2023-04-08T19:22:24.995Z,19.73
2023-04-08T19:27:27.042Z,21.03
2023-04-08T19:32:28.683Z,23.80
2023-04-08T19:37:30.300Z,21.43
2023-04-08T19:42:31.754Z,22.27
2023-04-08T19:47:33.217Z,21.80
2023-04-08T19:52:34.724Z,21.80
2023-04-08T19:57:36.290Z,20.87
2023-04-08T20:02:37.879Z,21.87
2023-04-08T20:07:39.451Z,22.07
2023-04-08T20:12:41.674Z,23.63
2023-04-08T20:17:43.152Z,26.33
2023-04-08T20:22:46.409Z,25.60
2023-04-08T20:27:47.891Z,30.43
2023-04-08T20:32:49.311Z,21.90
2023-04-08T20:37:51.145Z,24.47
2023-04-08T20:42:52.751Z,23.87
2023-04-08T20:47:54.339Z,25.20
2023-04-08T20:52:55.726Z,25.87
2023-04-08T20:57:57.113Z,21.83
2023-04-08T21:02:59.613Z,29.70
2023-04-08T21:08:01.092Z,22.97
2023-04-08T21:13:02.532Z,22.17
2023-04-08T21:18:06.146Z,23.27
2023-04-08T21:23:07.788Z,20.83
2023-04-08T21:28:09.165Z,20.53
2023-04-08T21:33:10.587Z,23.83
2023-04-08T21:38:12.657Z,23.27
2023-04-08T21:43:14.107Z,23.53
2023-04-08T21:48:15.680Z,24.07
2023-04-08T21:53:17.799Z,20.03
2023-04-08T21:58:19.210Z,26.20
2023-04-08T22:03:20.701Z,27.17
2023-04-08T22:08:22.960Z,22.87
2023-04-08T22:13:24.450Z,23.23
2023-04-08T22:18:25.903Z,24.60
2023-04-08T22:23:27.470Z,24.83
2023-04-08T22:28:29.026Z,27.97
2023-04-08T22:33:30.590Z,24.93
2023-04-08T22:38:32.150Z,28.77
2023-04-08T22:43:33.563Z,29.47
2023-04-08T22:48:35.542Z,25.77
2023-04-08T22:53:37.408Z,23.57
2023-04-08T22:58:38.810Z,26.97
2023-04-08T23:03:40.619Z,24.03
2023-04-08T23:08:42.395Z,22.07
2023-04-08T23:13:43.836Z,23.57
2023-04-08T23:18:45.388Z,24.90
2023-04-08T23:23:46.837Z,24.50
2023-04-08T23:28:48.269Z,22.27
2023-04-08T23:33:49.776Z,21.43
2023-04-08T23:38:51.545Z,23.10
2023-04-08T23:43:53.267Z,24.73
2023-04-08T23:48:54.801Z,28.73
2023-04-08T23:53:56.213Z,22.57
2023-04-08T23:58:57.603Z,24.50
